createdAt,value
2022-10-17T00:01:20.809Z,5.79
2022-10-17T00:03:49.772Z,5.69
2022-10-17T00:06:18.828Z,5.75
2022-10-17T00:08:49.186Z,5.97
2022-10-17T00:11:20.512Z,5.72
2022-10-17T00:13:51.053Z,5.17
2022-10-17T00:16:25.757Z,4.05
2022-10-17T00:18:55.062Z,4.69
2022-10-17T00:21:25.122Z,5.44
2022-10-17T00:23:56.506Z,5.20
2022-10-17T00:26:25.332Z,5.76
2022-10-17T00:28:54.976Z,5.45
2022-10-17T00:31:25.566Z,5.91
2022-10-17T00:33:55.160Z,6.16
2022-10-17T00:36:25.997Z,6.13
2022-10-17T00:38:58.856Z,6.13
2022-10-17T00:41:30.335Z,6.24
2022-10-17T00:44:02.352Z,5.69
2022-10-17T00:46:32.706Z,6.16
2022-10-17T00:49:04.902Z,6.15
2022-10-17T00:51:37.186Z,6.30
2022-10-17T00:54:08.236Z,6.11
2022-10-17T00:56:37.186Z,5.84
2022-10-17T01:01:41.977Z,6.21
2022-10-17T01:04:11.389Z,6.18
2022-10-17T01:06:41.528Z,6.19
2022-10-17T01:09:12.237Z,6.12
2022-10-17T01:11:51.097Z,6.32
2022-10-17T01:14:30.025Z,6.05
2022-10-17T01:17:10.662Z,6.11
2022-10-17T01:20:02.834Z,6.42
2022-10-17T01:22:41.917Z,5.31
2022-10-17T01:25:28.772Z,5.91
2022-10-17T01:28:10.712Z,5.21
2022-10-17T01:31:00.603Z,6.44
2022-10-17T01:33:39.462Z,6.62
2022-10-17T01:36:13.534Z,6.88
2022-10-17T01:38:45.638Z,6.92
2022-10-17T01:41:25.016Z,6.83
2022-10-17T01:44:00.396Z,6.19
2022-10-17T01:46:35.490Z,6.65
2022-10-17T01:49:06.907Z,6.57
2022-10-17T01:51:39.828Z,5.64
2022-10-17T01:54:15.382Z,6.46
2022-10-17T01:56:45.800Z,6.44
2022-10-17T01:59:19.027Z,5.72
2022-10-17T02:01:53.128Z,6.18
2022-10-17T02:04:22.670Z,6.02
2022-10-17T02:06:51.624Z,6.25
2022-10-17T02:09:23.316Z,6.55
2022-10-17T02:12:08.031Z,6.50
2022-10-17T02:14:51.046Z,6.05
2022-10-17T02:17:32.999Z,6.39
2022-10-17T02:20:11.849Z,6.27
2022-10-17T02:22:45.030Z,5.80
2022-10-17T02:25:23.209Z,6.78
2022-10-17T02:28:02.157Z,6.53
2022-10-17T02:30:38.740Z,7.16
2022-10-17T02:33:13.807Z,7.30
2022-10-17T02:35:48.627Z,7.22
2022-10-17T02:38:19.486Z,7.20
2022-10-17T02:40:51.553Z,7.23
2022-10-17T02:43:21.489Z,6.74
2022-10-17T02:45:52.246Z,7.25
2022-10-17T02:48:28.260Z,6.85
2022-10-17T02:51:06.173Z,7.21
2022-10-17T02:53:41.886Z,7.44
2022-10-17T02:56:18.762Z,7.08
2022-10-17T02:58:51.883Z,7.34
2022-10-17T03:01:21.892Z,6.98
2022-10-17T03:03:53.803Z,7.28
2022-10-17T03:06:22.824Z,7.41
2022-10-17T03:08:51.725Z,6.99
2022-10-17T03:11:20.568Z,7.09
2022-10-17T03:13:49.296Z,7.09
2022-10-17T03:16:18.917Z,7.20
2022-10-17T03:18:50.285Z,7.29
2022-10-17T03:21:21.037Z,7.06
2022-10-17T03:23:50.119Z,6.98
2022-10-17T03:26:21.186Z,7.35
2022-10-17T03:28:53.492Z,7.26
2022-10-17T03:31:24.317Z,6.90
2022-10-17T03:33:54.296Z,7.31
2022-10-17T03:36:24.526Z,7.34
2022-10-17T03:38:55.222Z,7.30
2022-10-17T03:41:25.051Z,6.64
2022-10-17T03:43:54.690Z,7.12
2022-10-17T03:46:24.704Z,7.13
2022-10-17T03:48:54.560Z,6.87
2022-10-17T03:51:25.372Z,6.99
2022-10-17T03:54:00.053Z,6.52
2022-10-17T03:56:29.077Z,6.33
2022-10-17T03:59:03.709Z,6.88
2022-10-17T04:01:35.482Z,6.94
2022-10-17T04:04:04.568Z,7.01
2022-10-17T04:06:37.856Z,6.64
2022-10-17T04:09:08.039Z,6.64
2022-10-17T04:12:01.870Z,6.67
2022-10-17T04:14:56.326Z,6.57
2022-10-17T04:17:27.089Z,5.58
2022-10-17T04:19:58.820Z,6.11
2022-10-17T04:22:30.076Z,6.04
2022-10-17T04:24:59.823Z,6.76
2022-10-17T04:27:44.489Z,6.36
2022-10-17T04:30:14.762Z,6.78
2022-10-17T04:32:43.581Z,6.66
2022-10-17T04:35:23.888Z,6.57
2022-10-17T04:38:03.212Z,6.64
2022-10-17T04:40:36.609Z,6.78
2022-10-17T04:43:08.740Z,6.40
2022-10-17T04:45:41.866Z,7.00
2022-10-17T04:48:12.869Z,6.26
2022-10-17T04:50:41.843Z,6.89
2022-10-17T04:53:38.800Z,6.83
2022-10-17T04:56:12.199Z,7.20
2022-10-17T04:58:42.916Z,7.32
2022-10-17T05:01:14.597Z,7.26
2022-10-17T05:03:45.375Z,7.07
2022-10-17T05:06:15.998Z,7.27
2022-10-17T05:08:52.455Z,7.36
2022-10-17T05:11:24.471Z,7.03
2022-10-17T05:14:00.536Z,7.36
2022-10-17T05:16:35.875Z,7.61
2022-10-17T05:19:05.182Z,7.40
2022-10-17T05:21:40.673Z,7.29
2022-10-17T05:24:14.604Z,7.62
2022-10-17T05:26:44.196Z,7.61
2022-10-17T05:29:14.369Z,7.70
2022-10-17T05:31:48.319Z,7.28
2022-10-17T05:34:17.261Z,7.88
2022-10-17T05:36:46.877Z,7.59
2022-10-17T05:39:25.290Z,7.29
2022-10-17T05:41:57.833Z,7.02
2022-10-17T05:44:27.168Z,7.93
2022-10-17T05:47:00.016Z,7.21
2022-10-17T05:49:43.985Z,8.13
2022-10-17T05:52:18.481Z,6.99
2022-10-17T05:55:08.748Z,8.20
2022-10-17T05:57:37.701Z,8.28
2022-10-17T06:00:11.758Z,8.37
2022-10-17T06:02:43.719Z,8.23
2022-10-17T06:05:16.655Z,7.96
2022-10-17T06:07:46.113Z,7.67
2022-10-17T06:10:25.655Z,8.70
2022-10-17T06:12:56.799Z,8.64
2022-10-17T06:15:26.100Z,7.82
2022-10-17T06:18:02.811Z,7.14
2022-10-17T06:20:32.021Z,8.51
2022-10-17T06:23:01.910Z,8.38
2022-10-17T06:26:13.433Z,8.14
2022-10-17T06:28:43.838Z,9.25
2022-10-17T06:31:17.001Z,8.80
2022-10-17T06:33:51.687Z,9.52
2022-10-17T06:36:30.058Z,9.63
2022-10-17T06:39:02.511Z,8.62
2022-10-17T06:41:46.018Z,9.01
2022-10-17T06:44:25.435Z,8.87
2022-10-17T06:47:20.179Z,10.09
2022-10-17T06:49:53.855Z,9.71
2022-10-17T06:52:39.635Z,9.23
2022-10-17T06:55:41.474Z,10.31
2022-10-17T06:58:53.071Z,10.07
2022-10-17T07:01:35.608Z,10.88
2022-10-17T07:04:07.260Z,9.33
2022-10-17T07:06:39.338Z,10.30
2022-10-17T07:09:17.391Z,10.72
2022-10-17T07:11:50.814Z,10.33
2022-10-17T07:14:22.378Z,10.87
2022-10-17T07:16:51.270Z,10.52
2022-10-17T07:19:23.252Z,10.72
2022-10-17T07:21:57.978Z,11.15
2022-10-17T07:24:28.107Z,10.37
2022-10-17T07:27:09.609Z,11.34
2022-10-17T07:29:41.901Z,11.41
2022-10-17T07:32:19.113Z,9.99
2022-10-17T07:34:54.381Z,11.71
2022-10-17T07:37:26.018Z,10.54
2022-10-17T07:40:07.762Z,10.64
2022-10-17T07:42:57.101Z,11.11
2022-10-17T07:45:30.547Z,10.35
2022-10-17T07:47:59.951Z,11.22
2022-10-17T07:50:29.372Z,12.01
2022-10-17T07:53:02.371Z,11.30
2022-10-17T07:55:48.625Z,11.58
2022-10-17T07:58:17.765Z,12.06
2022-10-17T08:00:55.490Z,11.95
2022-10-17T08:03:24.830Z,11.39
2022-10-17T08:05:53.914Z,11.99
2022-10-17T08:08:25.417Z,10.95
2022-10-17T08:10:57.475Z,12.63
2022-10-17T08:13:28.294Z,11.38
2022-10-17T08:16:24.066Z,11.33
2022-10-17T08:19:13.129Z,12.50
2022-10-17T08:21:51.755Z,11.60
2022-10-17T08:29:00.995Z,13.20
2022-10-17T08:32:41.988Z,12.46
2022-10-17T08:35:21.510Z,13.06
2022-10-17T08:37:53.628Z,12.66
2022-10-17T08:40:27.022Z,11.98
2022-10-17T08:43:26.614Z,12.54
2022-10-17T08:46:04.162Z,13.20
2022-10-17T08:48:42.632Z,13.20
2022-10-17T08:51:22.775Z,12.74
2022-10-17T08:54:00.790Z,13.06
2022-10-17T08:56:47.939Z,12.61
2022-10-17T08:59:21.671Z,13.21
2022-10-17T09:01:58.988Z,14.12
2022-10-17T09:04:53.893Z,13.59
2022-10-17T09:08:01.271Z,13.48
2022-10-17T09:10:56.999Z,14.19
2022-10-17T09:13:53.297Z,14.49
2022-10-17T09:16:53.269Z,13.79
2022-10-17T09:19:27.044Z,14.23
2022-10-17T09:22:01.595Z,14.97
2022-10-17T09:24:43.664Z,14.82
2022-10-17T09:27:25.578Z,15.82
2022-10-17T09:30:44.766Z,14.02
2022-10-17T09:33:42.365Z,14.51
2022-10-17T09:36:24.906Z,15.22
2022-10-17T09:38:59.995Z,16.21
2022-10-17T09:41:51.537Z,16.15
2022-10-17T09:45:21.333Z,16.31
2022-10-17T09:48:09.441Z,15.93
2022-10-17T09:51:14.828Z,14.85
2022-10-17T09:53:49.175Z,15.55
2022-10-17T09:56:21.410Z,14.79
2022-10-17T09:58:54.838Z,15.70
2022-10-17T10:01:25.001Z,17.13
2022-10-17T10:04:18.500Z,18.79
2022-10-17T10:07:09.515Z,19.81
2022-10-17T10:09:40.405Z,20.69
2022-10-17T10:12:19.311Z,21.52
2022-10-17T10:14:53.282Z,21.16
2022-10-17T10:17:31.022Z,22.07
2022-10-17T10:20:25.370Z,23.58
2022-10-17T10:23:16.225Z,21.49
2022-10-17T10:25:55.544Z,20.13
2022-10-17T10:28:28.434Z,23.27
2022-10-17T10:31:15.145Z,23.12
2022-10-17T10:33:56.889Z,22.80
2022-10-17T10:37:39.255Z,24.30
2022-10-17T10:40:28.124Z,25.06
2022-10-17T10:43:20.142Z,25.45
2022-10-17T10:46:42.182Z,24.19
2022-10-17T10:49:33.905Z,27.78
2022-10-17T10:52:46.476Z,28.81
2022-10-17T10:55:37.503Z,25.92
2022-10-17T10:58:41.788Z,28.64
2022-10-17T11:01:26.402Z,29.44
2022-10-17T11:04:19.406Z,29.29
2022-10-17T11:07:13.311Z,28.36
2022-10-17T11:10:41.952Z,25.41
2022-10-17T11:13:36.396Z,28.77
2022-10-17T11:16:24.799Z,30.20
2022-10-17T11:19:04.952Z,26.13
2022-10-17T11:22:29.204Z,28.39
2022-10-17T11:25:20.050Z,29.21
2022-10-17T11:27:53.077Z,30.17
2022-10-17T11:30:26.633Z,26.20
2022-10-17T11:33:02.399Z,28.76
2022-10-17T11:35:35.238Z,27.53
2022-10-17T11:38:09.593Z,28.40
2022-10-17T11:40:43.701Z,27.96
2022-10-17T11:43:28.304Z,28.13
2022-10-17T11:46:30.845Z,25.58
2022-10-17T11:53:21.000Z,30.81
2022-10-17T11:56:02.354Z,29.39
2022-10-17T11:58:51.671Z,27.95
2022-10-17T12:01:30.794Z,27.33
2022-10-17T12:04:28.131Z,26.09
2022-10-17T12:07:18.753Z,26.60
2022-10-17T12:10:08.895Z,28.00
2022-10-17T12:12:53.186Z,29.03
2022-10-17T12:15:33.934Z,29.86
2022-10-17T12:18:04.440Z,28.16
2022-10-17T12:20:40.090Z,28.30
2022-10-17T12:23:30.446Z,32.84
2022-10-17T12:26:19.084Z,30.93
2022-10-17T12:28:50.853Z,32.13
2022-10-17T12:31:33.713Z,31.32
2022-10-17T12:34:05.445Z,30.21
2022-10-17T12:36:43.384Z,29.11
2022-10-17T12:39:52.814Z,30.17
2022-10-17T12:42:47.664Z,30.17
2022-10-17T12:45:51.489Z,31.88
2022-10-17T12:49:02.415Z,31.70
2022-10-17T12:51:37.406Z,29.76
2022-10-17T12:54:13.415Z,28.52
2022-10-17T12:56:46.063Z,25.75
2022-10-17T12:59:21.314Z,23.68
2022-10-17T13:01:57.507Z,22.48
2022-10-17T13:04:28.187Z,22.70
2022-10-17T13:07:01.381Z,21.52
2022-10-17T13:09:33.889Z,21.10
2022-10-17T13:12:07.834Z,21.64
2022-10-17T13:15:01.410Z,22.07
2022-10-17T13:17:33.461Z,21.21
2022-10-17T13:20:02.977Z,24.06
2022-10-17T13:22:34.033Z,21.87
2022-10-17T13:25:11.236Z,23.65
2022-10-17T13:27:42.277Z,21.34
2022-10-17T13:30:31.248Z,23.11
2022-10-17T13:33:02.294Z,22.42
2022-10-17T13:35:58.972Z,22.98
2022-10-17T13:38:36.725Z,26.49
2022-10-17T13:41:34.971Z,20.32
2022-10-17T13:44:11.632Z,17.82
2022-10-17T13:46:44.159Z,18.24
2022-10-17T13:49:26.081Z,18.99
2022-10-17T13:52:39.654Z,18.25
2022-10-17T13:55:20.364Z,18.38
2022-10-17T13:57:52.643Z,18.77
2022-10-17T14:00:23.572Z,16.75
2022-10-17T14:02:56.038Z,16.61
2022-10-17T14:05:25.563Z,18.45
2022-10-17T14:08:14.476Z,17.99
2022-10-17T14:10:51.541Z,18.11
2022-10-17T14:13:27.759Z,17.13
2022-10-17T14:16:01.359Z,17.95
2022-10-17T14:18:36.430Z,17.95
2022-10-17T14:24:21.045Z,16.41
2022-10-17T14:26:51.721Z,17.50
2022-10-17T14:29:25.589Z,17.47
2022-10-17T14:32:08.806Z,16.54
2022-10-17T14:35:10.555Z,15.96
2022-10-17T14:37:50.970Z,16.62
2022-10-17T14:40:31.863Z,16.91
2022-10-17T14:43:06.496Z,17.72
2022-10-17T14:45:39.587Z,16.94
2022-10-17T14:48:14.591Z,17.20
2022-10-17T14:51:08.903Z,17.42
2022-10-17T14:53:38.774Z,15.93
2022-10-17T14:56:24.707Z,17.92
2022-10-17T14:58:53.802Z,17.44
2022-10-17T15:01:23.824Z,17.16
2022-10-17T15:03:53.352Z,16.85
2022-10-17T15:06:28.806Z,16.77
2022-10-17T15:08:58.244Z,15.75
2022-10-17T15:11:30.162Z,16.96
2022-10-17T15:13:59.532Z,15.75
2022-10-17T15:16:33.518Z,16.64
2022-10-17T15:19:10.953Z,16.70
2022-10-17T15:21:47.725Z,15.80
2022-10-17T15:24:16.982Z,15.11
2022-10-17T15:26:46.512Z,16.12
2022-10-17T15:29:17.518Z,14.57
2022-10-17T15:31:52.378Z,14.96
2022-10-17T15:34:23.902Z,15.41
2022-10-17T15:36:59.349Z,14.36
2022-10-17T15:39:53.611Z,15.24
2022-10-17T15:42:48.639Z,15.47
2022-10-17T15:45:25.964Z,14.32
2022-10-17T15:48:04.022Z,15.91
2022-10-17T15:50:43.228Z,15.07
2022-10-17T15:53:24.297Z,15.57
2022-10-17T15:56:00.597Z,15.53
2022-10-17T15:58:35.127Z,15.81
2022-10-17T16:01:06.554Z,15.45
2022-10-17T16:03:35.834Z,15.91
2022-10-17T16:06:14.291Z,15.71
2022-10-17T16:08:45.010Z,14.68
2022-10-17T16:11:19.613Z,15.63
2022-10-17T16:13:54.573Z,15.15
2022-10-17T16:16:26.030Z,15.49
2022-10-17T16:18:55.328Z,15.14
2022-10-17T16:21:27.774Z,15.08
2022-10-17T16:23:58.793Z,15.38
2022-10-17T16:26:29.347Z,14.77
2022-10-17T16:29:03.063Z,15.51
2022-10-17T16:31:34.582Z,14.70
2022-10-17T16:34:07.796Z,15.03
2022-10-17T16:39:29.418Z,14.12
2022-10-17T16:41:58.758Z,14.09
2022-10-17T16:44:31.099Z,15.07
2022-10-17T16:46:59.987Z,14.93
2022-10-17T16:49:29.064Z,15.28
2022-10-17T16:51:58.578Z,14.76
2022-10-17T16:54:34.674Z,15.22
2022-10-17T16:57:08.040Z,14.97
2022-10-17T16:59:36.769Z,15.36
2022-10-17T17:02:07.247Z,15.21
2022-10-17T17:04:37.157Z,15.02
2022-10-17T17:07:06.452Z,15.09
2022-10-17T17:09:43.257Z,15.26
2022-10-17T17:12:14.089Z,15.33
2022-10-17T17:19:08.308Z,15.39
2022-10-17T17:21:04.833Z,15.04
2022-10-17T17:23:35.556Z,15.25
2022-10-17T17:26:09.030Z,15.24
2022-10-17T17:28:41.877Z,15.22
2022-10-17T17:31:14.804Z,14.88
2022-10-17T17:34:09.648Z,13.58
2022-10-17T17:36:43.038Z,14.11
2022-10-17T17:39:21.570Z,14.69
2022-10-17T17:41:59.337Z,14.12
2022-10-17T17:44:28.536Z,14.62
2022-10-17T17:46:57.736Z,15.17
2022-10-17T17:49:26.644Z,14.81
2022-10-17T17:51:56.776Z,14.25
2022-10-17T17:54:37.196Z,14.45
2022-10-17T17:57:10.838Z,15.05
2022-10-17T17:59:41.631Z,14.12
2022-10-17T18:02:21.664Z,14.48
2022-10-17T18:04:51.023Z,15.08
2022-10-17T18:07:20.499Z,14.41
2022-10-17T18:09:54.897Z,13.63
2022-10-17T18:13:02.402Z,13.89
2022-10-17T18:17:00.359Z,13.17
2022-10-17T18:19:51.812Z,13.75
2022-10-17T18:22:32.144Z,13.29
2022-10-17T18:29:18.981Z,14.52
2022-10-17T18:32:08.684Z,14.18
2022-10-17T18:38:16.305Z,14.83
2022-10-17T18:40:54.775Z,14.17
2022-10-17T18:43:53.380Z,13.35
2022-10-17T18:46:32.738Z,14.81
2022-10-17T18:49:09.699Z,12.99
2022-10-17T18:52:05.071Z,13.72
2022-10-17T18:54:35.827Z,14.14
2022-10-17T18:57:05.789Z,14.62
2022-10-17T18:59:40.440Z,13.65
2022-10-17T19:02:20.325Z,13.40
2022-10-17T19:07:24.300Z,13.67
2022-10-17T19:10:06.077Z,13.84
2022-10-17T19:12:37.921Z,13.37
2022-10-17T19:15:11.546Z,13.63
2022-10-17T19:17:44.200Z,13.76
2022-10-17T19:20:55.572Z,14.30
2022-10-17T19:23:56.827Z,12.74
2022-10-17T19:26:38.109Z,13.46
2022-10-17T19:29:33.420Z,14.42
2022-10-17T19:32:04.179Z,14.46
2022-10-17T19:34:34.593Z,14.43
2022-10-17T19:37:19.223Z,13.35
2022-10-17T19:39:52.435Z,14.39
2022-10-17T19:42:23.690Z,13.20
2022-10-17T19:44:59.408Z,14.26
2022-10-17T19:47:31.438Z,13.49
2022-10-17T19:52:38.749Z,14.38
2022-10-17T19:55:11.835Z,14.12
2022-10-17T19:57:40.844Z,14.11
2022-10-17T20:00:19.051Z,13.92
2022-10-17T20:03:03.715Z,14.10
2022-10-17T20:05:39.927Z,13.28
2022-10-17T20:08:16.428Z,14.25
2022-10-17T20:10:49.751Z,14.22
2022-10-17T20:13:20.115Z,14.19
2022-10-17T20:15:56.102Z,13.84
2022-10-17T20:18:25.582Z,13.78
2022-10-17T20:21:01.710Z,14.03
2022-10-17T20:23:30.689Z,12.65
2022-10-17T20:26:25.995Z,12.58
2022-10-17T20:29:35.367Z,14.03
2022-10-17T20:33:19.100Z,12.94
2022-10-17T20:36:35.153Z,13.24
2022-10-17T20:39:12.099Z,12.89
2022-10-17T20:41:43.520Z,13.20
2022-10-17T20:44:16.623Z,13.60
2022-10-17T20:47:02.216Z,13.60
2022-10-17T20:50:09.101Z,13.93
2022-10-17T20:52:55.810Z,13.32
2022-10-17T20:55:35.465Z,13.35
2022-10-17T20:58:10.771Z,12.73
2022-10-17T21:00:50.537Z,12.66
2022-10-17T21:03:46.465Z,12.59
2022-10-17T21:06:23.212Z,12.61
2022-10-17T21:09:16.688Z,13.38
2022-10-17T21:12:04.465Z,14.02
2022-10-17T21:14:39.586Z,13.31
2022-10-17T21:17:12.332Z,13.44
2022-10-17T21:19:59.031Z,13.27
2022-10-17T21:22:35.911Z,12.38
2022-10-17T21:25:13.583Z,13.05
2022-10-17T21:27:42.776Z,12.81
2022-10-17T21:30:13.450Z,13.06
2022-10-17T21:32:57.572Z,12.51
2022-10-17T21:35:26.826Z,13.71
2022-10-17T21:38:00.588Z,12.37
2022-10-17T21:40:29.282Z,13.71
2022-10-17T21:43:01.074Z,13.72
2022-10-17T21:45:31.777Z,13.44
2022-10-17T21:48:12.520Z,13.06
2022-10-17T21:50:42.571Z,13.65
2022-10-17T21:53:11.467Z,12.67
2022-10-17T21:55:40.256Z,13.26
2022-10-17T21:58:09.217Z,12.94
2022-10-17T22:00:39.427Z,13.15
2022-10-17T22:03:09.698Z,13.56
2022-10-17T22:05:38.589Z,13.42
2022-10-17T22:08:07.561Z,13.57
2022-10-17T22:10:39.650Z,13.29
2022-10-17T22:13:08.458Z,13.16
2022-10-17T22:15:38.021Z,13.48
2022-10-17T22:18:08.189Z,13.23
2022-10-17T22:20:37.817Z,13.44
2022-10-17T22:23:06.917Z,13.06
2022-10-17T22:25:36.348Z,13.41
2022-10-17T22:28:08.120Z,13.35
2022-10-17T22:30:37.075Z,13.13
2022-10-17T22:33:06.413Z,13.09
2022-10-17T22:35:37.557Z,13.30
2022-10-17T22:38:06.646Z,13.10
2022-10-17T22:40:35.841Z,13.02
2022-10-17T22:43:04.996Z,13.14
2022-10-17T22:45:34.196Z,13.09
2022-10-17T22:48:02.879Z,12.98
2022-10-17T22:50:31.602Z,13.10
2022-10-17T22:53:02.403Z,13.05
2022-10-17T22:55:31.236Z,12.98
2022-10-17T22:58:00.098Z,12.53
2022-10-17T23:03:03.302Z,12.42
2022-10-17T23:05:34.846Z,12.57
2022-10-17T23:08:05.348Z,12.58
2022-10-17T23:10:34.491Z,12.70
2022-10-17T23:13:03.793Z,12.78
2022-10-17T23:15:33.524Z,12.20
2022-10-17T23:18:03.607Z,12.60
2022-10-17T23:20:32.796Z,12.57
2022-10-17T23:23:01.810Z,12.62
2022-10-17T23:25:32.009Z,12.62
2022-10-17T23:28:01.131Z,12.29
2022-10-17T23:30:30.821Z,12.31
2022-10-17T23:32:59.743Z,12.62
2022-10-17T23:35:28.898Z,12.43
2022-10-17T23:37:57.789Z,12.50
2022-10-17T23:40:26.701Z,12.40
2022-10-17T23:42:57.030Z,12.47
2022-10-17T23:45:25.999Z,11.96
2022-10-17T23:47:54.946Z,12.33
2022-10-17T23:50:23.741Z,12.19
2022-10-17T23:52:52.894Z,12.38
2022-10-17T23:55:21.777Z,12.24
2022-10-17T23:57:50.660Z,11.78
